Time;durP1;ratioP1;P1;durP2;ratioP2;P2;SDS_P1;SDS_P2;PMS_P1;PMS_P2;Temp;Humidity;BMP_temperature;BMP_pressure;BME280_temperature;BME280_humidity;BME280_pressure;Samples;Min_cycle;Max_cycle;Signal;HPM_P1;HPM_P2
2022/04/19 00:01:40;;;;;;;2.60;1.80;;;;;;;12.92;38.01;99945.31;10244395;28;20134;-64
2022/04/19 00:06:44;;;;;;;2.13;1.90;;;;;;;12.91;38.60;99949.00;10237319;28;20065;-64
2022/04/19 00:11:45;;;;;;;2.17;1.67;;;;;;;12.82;38.26;99928.47;10241074;28;20054;-66
2022/04/19 00:16:46;;;;;;;2.80;1.77;;;;;;;12.81;37.38;99934.84;10241661;28;20053;-64
2022/04/19 00:21:48;;;;;;;3.42;2.53;;;;;;;12.90;38.04;99933.94;10241371;28;20503;-65
2022/04/19 00:26:49;;;;;;;1.52;1.42;;;;;;;12.72;38.41;99934.69;10240631;28;20051;-64
2022/04/19 00:31:51;;;;;;;1.92;1.65;;;;;;;12.67;38.48;99910.28;10239629;28;20077;-64
2022/04/19 00:36:52;;;;;;;3.55;1.50;;;;;;;12.53;37.64;99913.41;10237043;28;20169;-64
2022/04/19 00:41:55;;;;;;;3.03;1.25;;;;;;;12.46;37.86;99921.16;10236894;28;20043;-64
2022/04/19 00:46:57;;;;;;;1.77;1.60;;;;;;;12.37;37.78;99912.19;10234186;28;20511;-65
2022/04/19 00:51:58;;;;;;;3.75;1.50;;;;;;;12.39;37.65;99925.38;10239118;28;20055;-65
2022/04/19 00:57:01;;;;;;;1.83;1.35;;;;;;;12.32;37.88;99911.75;10242518;28;20066;-65
2022/04/19 01:02:03;;;;;;;4.65;1.80;;;;;;;12.20;38.09;99896.88;10235976;28;20130;-63
2022/04/19 01:07:05;;;;;;;2.15;1.65;;;;;;;12.17;39.31;99889.16;10240906;28;20047;-63
2022/04/19 01:17:28;;;;;;;1.73;1.50;;;;;;;12.24;39.04;99902.78;10240133;28;20061;-63
2022/04/19 01:22:37;;;;;;;2.40;2.20;;;;;;;12.10;39.19;99906.72;10241973;28;20475;-63
2022/04/19 01:27:38;;;;;;;1.85;1.40;;;;;;;11.80;40.24;99887.19;10234604;28;20039;-64
2022/04/19 01:32:40;;;;;;;1.88;1.40;;;;;;;11.92;38.71;99888.75;10234448;28;20057;-64
2022/04/19 01:37:44;;;;;;;1.23;1.08;;;;;;;11.90;39.17;99880.03;10239159;28;20058;-64
2022/04/19 01:42:52;;;;;;;2.00;1.52;;;;;;;11.93;38.65;99882.44;10247653;28;20138;-65
2022/04/19 01:47:58;;;;;;;1.20;0.90;;;;;;;11.86;38.38;99889.31;10238834;28;20655;-63
2022/04/19 01:53:00;;;;;;;2.78;1.40;;;;;;;11.78;39.13;99886.50;10233166;28;20457;-64
2022/04/19 01:58:02;;;;;;;2.08;1.52;;;;;;;11.73;39.55;99872.75;10231253;28;20079;-65
2022/04/19 02:03:03;;;;;;;2.13;1.70;;;;;;;11.78;39.00;99881.16;10233395;28;20078;-64
2022/04/19 02:08:06;;;;;;;2.25;1.25;;;;;;;11.82;38.46;99883.41;10235975;28;20058;-64
2022/04/19 02:13:07;;;;;;;1.77;1.40;;;;;;;11.67;39.33;99864.31;10239565;28;20051;-64
2022/04/19 02:18:10;;;;;;;2.22;1.20;;;;;;;11.72;38.06;99871.91;10237888;28;20078;-65
2022/04/19 02:23:15;;;;;;;2.25;1.73;;;;;;;11.61;38.30;99869.38;10240020;28;20180;-64
2022/04/19 02:28:16;;;;;;;1.83;1.63;;;;;;;11.49;39.17;99852.69;10246212;28;20065;-64
2022/04/19 02:33:18;;;;;;;1.70;1.27;;;;;;;11.62;39.02;99861.25;10242644;28;20130;-64
2022/04/19 02:38:19;;;;;;;1.75;1.30;;;;;;;11.44;39.45;99838.91;10241615;28;20054;-65
2022/04/19 02:43:20;;;;;;;2.88;1.30;;;;;;;11.42;39.71;99843.53;10240876;28;20401;-64
2022/04/19 02:48:22;;;;;;;2.67;1.20;;;;;;;11.50;39.62;99857.03;10256796;28;20107;-64
2022/04/19 02:53:24;;;;;;;1.73;1.17;;;;;;;11.42;40.22;99851.53;10243871;28;20471;-65
2022/04/19 02:58:25;;;;;;;2.60;1.40;;;;;;;11.31;39.65;99847.19;10246188;28;20826;-64
2022/04/19 03:03:29;;;;;;;3.40;1.60;;;;;;;11.31;39.84;99856.00;10238270;28;20061;-63
2022/04/19 03:08:34;;;;;;;2.13;1.53;;;;;;;11.15;40.01;99837.06;10246303;28;20073;-63
2022/04/19 03:13:36;;;;;;;;;;;;;;;11.16;40.11;99854.72;10242968;28;20385;-63
2022/04/19 03:18:38;;;;;;;1.98;1.77;;;;;;;11.00;40.91;99838.44;10242849;28;19953;-64
2022/04/19 03:29:00;;;;;;;3.17;2.05;;;;;;;11.00;41.31;99851.75;10243211;28;20604;-64
2022/04/19 03:34:03;;;;;;;2.60;2.00;;;;;;;10.81;41.26;99829.41;10244718;28;20142;-64
2022/04/19 03:39:04;;;;;;;3.33;2.05;;;;;;;10.87;41.18;99842.19;10245623;28;20058;-64
2022/04/19 03:44:07;;;;;;;2.10;1.90;;;;;;;10.72;41.83;99830.22;10243115;28;20125;-65
2022/04/19 03:49:08;;;;;;;1.73;1.55;;;;;;;10.69;41.42;99847.31;10242371;28;20079;-65
2022/04/19 03:54:09;;;;;;;3.05;2.00;;;;;;;10.63;41.93;99841.66;10240615;28;20133;-65
2022/04/19 03:59:11;;;;;;;2.60;2.20;;;;;;;10.63;41.99;99854.97;10246308;28;20061;-64
2022/04/19 04:04:12;;;;;;;3.40;2.03;;;;;;;10.63;41.95;99857.63;10244326;28;20139;-65
2022/04/19 04:09:14;;;;;;;2.83;2.05;;;;;;;10.56;41.77;99858.16;10235907;28;20130;-65
2022/04/19 04:14:15;;;;;;;2.40;1.95;;;;;;;10.48;42.24;99860.66;10243264;28;20446;-65
2022/04/19 04:19:16;;;;;;;1.98;1.77;;;;;;;10.38;42.74;99859.78;10238981;28;20066;-69
2022/04/19 04:24:18;;;;;;;2.25;2.05;;;;;;;10.41;42.25;99875.47;10246370;28;20061;-65
2022/04/19 04:29:19;;;;;;;2.20;1.85;;;;;;;10.24;42.48;99856.44;10242733;28;20051;-65
2022/04/19 04:34:21;;;;;;;3.35;2.30;;;;;;;10.23;42.77;99861.91;10245101;28;20053;-65
2022/04/19 04:39:22;;;;;;;3.70;2.03;;;;;;;10.09;43.18;99847.13;10249001;28;20713;-63
2022/04/19 04:44:24;;;;;;;2.78;2.53;;;;;;;10.16;43.16;99858.91;10243790;28;20882;-63
2022/04/19 04:49:37;;;;;;;2.92;2.40;;;;;;;10.21;43.93;99863.84;10244005;28;20069;-65
2022/04/19 04:54:40;;;;;;;2.85;2.20;;;;;;;10.11;44.64;99853.13;10230982;28;20083;-68
2022/04/19 04:59:41;;;;;;;2.08;1.77;;;;;;;10.13;43.37;99867.13;10236226;28;20421;-65
2022/04/19 05:04:42;;;;;;;2.28;1.85;;;;;;;10.15;43.94;99865.22;10228365;28;20146;-65
2022/04/19 05:09:44;;;;;;;2.50;2.17;;;;;;;10.17;43.88;99857.94;10214641;28;20055;-65
2022/04/19 05:14:45;;;;;;;7.53;2.95;;;;;;;10.17;43.71;99849.13;10220382;28;20062;-64
2022/04/19 05:19:46;;;;;;;3.10;2.65;;;;;;;10.24;44.10;99877.72;10212924;28;20411;-66
2022/04/19 05:24:48;;;;;;;4.85;3.35;;;;;;;10.22;43.69;99861.06;10212617;28;20059;-66
2022/04/19 05:29:49;;;;;;;5.70;2.88;;;;;;;10.30;44.38;99872.84;10218299;28;20134;-67
2022/04/19 05:34:51;;;;;;;3.17;2.88;;;;;;;10.24;44.55;99864.41;10229020;28;20173;-65
2022/04/19 05:39:52;;;;;;;3.17;2.80;;;;;;;10.35;44.00;99874.16;10211351;28;20703;-67
2022/04/19 05:44:54;;;;;;;4.18;3.45;;;;;;;10.52;42.92;99887.84;10217403;28;20050;-64
2022/04/19 05:49:55;;;;;;;4.43;2.53;;;;;;;10.66;43.51;99883.97;10214609;28;20051;-64
2022/04/19 05:54:56;;;;;;;2.72;2.30;;;;;;;10.74;42.88;99870.88;10217901;28;20051;-64
2022/04/19 05:59:58;;;;;;;4.18;2.83;;;;;;;10.73;42.61;99870.03;10229595;28;20057;-66
2022/04/19 06:05:00;;;;;;;3.35;2.67;;;;;;;10.86;42.44;99875.09;10227531;28;20253;-63
2022/04/19 06:10:01;;;;;;;4.40;2.78;;;;;;;11.12;42.07;99879.94;10230838;28;20058;-66
2022/04/19 06:15:03;;;;;;;3.13;2.38;;;;;;;11.31;41.56;99871.16;10227431;28;20058;-63
2022/04/19 06:20:05;;;;;;;3.65;2.58;;;;;;;11.55;41.71;99875.28;10226072;28;20510;-65
2022/04/19 06:25:07;;;;;;;2.95;2.63;;;;;;;11.74;41.42;99891.28;10224990;28;20054;-66
2022/04/19 06:30:09;;;;;;;4.15;3.28;;;;;;;11.89;40.55;99893.50;10218718;28;20181;-63
2022/04/19 06:35:10;;;;;;;4.78;3.30;;;;;;;11.95;40.55;99872.50;10221249;28;20488;-63
2022/04/19 06:40:12;;;;;;;4.13;3.33;;;;;;;12.20;39.80;99894.22;10220555;28;20321;-63
2022/04/19 06:45:14;;;;;;;3.75;3.28;;;;;;;12.24;39.04;99874.28;10224662;28;20058;-63
2022/04/19 06:50:15;;;;;;;4.60;3.08;;;;;;;12.46;39.44;99885.59;10223254;28;20047;-63
2022/04/19 06:55:17;;;;;;;3.60;3.30;;;;;;;12.54;39.00;99886.56;10224070;28;20125;-63
2022/04/19 07:00:19;;;;;;;3.67;2.97;;;;;;;12.63;39.08;99882.16;10220027;28;20281;-63
2022/04/19 07:05:20;;;;;;;4.00;3.60;;;;;;;12.84;38.52;99883.78;10221763;28;20055;-63
2022/04/19 07:10:21;;;;;;;4.50;3.88;;;;;;;13.08;37.82;99881.41;10220152;28;20051;-63
2022/04/19 07:15:23;;;;;;;4.88;4.32;;;;;;;13.17;37.69;99874.34;10219673;28;20055;-63
2022/04/19 07:31:08;;;;;;;5.53;4.90;;;;;;;13.67;36.18;99870.34;10223808;28;21931;-63
2022/04/19 07:36:10;;;;;;;4.90;4.40;;;;;;;14.01;35.75;99883.03;10222351;28;20054;-63
2022/04/19 07:41:17;;;;;;;5.28;3.63;;;;;;;14.24;35.83;99877.19;10222017;28;20055;-63
2022/04/19 07:46:19;;;;;;;4.70;4.20;;;;;;;14.37;35.26;99864.22;10222772;28;20051;-63
2022/04/19 07:51:21;;;;;;;6.68;4.43;;;;;;;14.52;35.21;99877.00;10228576;28;20142;-63
2022/04/19 07:56:22;;;;;;;4.13;3.58;;;;;;;14.75;35.43;99862.13;10225700;28;20057;-63
2022/04/19 08:01:24;;;;;;;6.57;3.83;;;;;;;14.97;34.92;99857.19;10221855;28;20071;-64
2022/04/19 08:06:27;;;;;;;4.82;3.88;;;;;;;15.36;33.55;99870.06;10223446;28;20073;-63
2022/04/19 08:11:28;;;;;;;6.85;4.55;;;;;;;15.40;34.45;99849.09;10222629;28;20069;-64
2022/04/19 08:16:30;;;;;;;4.90;4.18;;;;;;;15.54;34.40;99864.56;10219256;28;20046;-64
2022/04/19 08:21:31;;;;;;;6.40;3.78;;;;;;;15.59;34.07;99851.47;10219034;28;20050;-64
2022/04/19 08:26:33;;;;;;;7.53;4.25;;;;;;;15.52;34.28;99855.81;10219229;28;20066;-66
2022/04/19 08:31:35;;;;;;;8.35;4.45;;;;;;;15.56;34.33;99863.38;10222047;28;20054;-66
2022/04/19 08:36:36;;;;;;;6.28;3.83;;;;;;;15.59;34.77;99853.31;10219464;28;20258;-65
2022/04/19 08:41:39;;;;;;;6.38;4.20;;;;;;;15.92;34.05;99839.97;10226187;28;20057;-65
2022/04/19 08:46:41;;;;;;;4.03;3.60;;;;;;;16.09;34.17;99841.59;10217991;28;20055;-64
2022/04/19 08:51:44;;;;;;;5.68;4.82;;;;;;;16.49;33.63;99858.66;10221687;28;20583;-64
2022/04/19 09:02:06;;;;;;;9.02;5.82;;;;;;;16.95;32.09;99847.31;10217827;28;20273;-64
2022/04/19 09:07:09;;;;;;;5.15;4.65;;;;;;;17.45;30.13;99848.69;10213275;28;20256;-63
2022/04/19 09:12:12;;;;;;;6.05;5.22;;;;;;;17.82;29.58;99847.09;10218558;28;20200;-64
2022/04/19 09:17:13;;;;;;;5.50;4.68;;;;;;;17.99;29.09;99828.13;10219756;28;20070;-64
2022/04/19 09:22:25;;;;;;;5.15;4.65;;;;;;;18.63;28.75;99849.19;10216079;28;20065;-64
2022/04/19 09:27:33;;;;;;;5.38;4.82;;;;;;;19.01;28.09;99832.91;10215298;28;20653;-63
2022/04/19 09:32:35;;;;;;;5.32;4.53;;;;;;;19.14;26.25;99809.81;10214583;28;20050;-63
2022/04/19 09:37:36;;;;;;;4.93;4.45;;;;;;;19.82;25.46;99807.63;10217826;28;20059;-63
2022/04/19 09:42:38;;;;;;;5.32;4.82;;;;;;;20.20;24.78;99819.97;10217955;28;20082;-63
2022/04/19 09:47:52;;;;;;;5.05;4.10;;;;;;;20.18;24.98;99808.53;10219198;28;20125;-63
2022/04/19 09:52:54;;;;;;;5.70;5.00;;;;;;;20.64;25.64;99805.25;10219696;28;20098;-64
2022/04/19 09:57:55;;;;;;;5.45;4.82;;;;;;;21.16;24.48;99790.28;10215254;28;20050;-64
2022/04/19 10:08:23;;;;;;;5.75;5.25;;;;;;;21.83;23.13;99785.00;10210817;28;20686;-65
2022/04/19 10:13:26;;;;;;;6.22;5.43;;;;;;;21.92;22.88;99790.19;10222104;28;20627;-63
2022/04/19 10:18:27;;;;;;;5.80;5.20;;;;;;;22.60;22.76;99793.44;10211775;28;20069;-63
2022/04/19 10:23:34;;;;;;;7.03;4.78;;;;;;;25.51;19.87;99773.28;10216220;28;20051;-63
2022/04/19 10:28:35;;;;;;;4.95;4.53;;;;;;;29.08;15.92;99772.16;10210466;28;20157;-63
2022/04/19 10:33:53;;;;;;;5.47;4.97;;;;;;;30.13;15.80;99768.13;10213727;28;20051;-63
2022/04/19 10:39:14;;;;;;;6.85;4.95;;;;;;;27.27;16.97;99773.31;10212809;28;20071;-64
2022/04/19 10:44:23;;;;;;;5.07;4.68;;;;;;;25.85;19.16;99774.41;10216604;28;20055;-63
2022/04/19 10:49:25;;;;;;;4.85;4.35;;;;;;;26.80;18.54;99766.97;10220103;28;20146;-63
2022/04/19 10:55:02;;;;;;;4.40;3.97;;;;;;;31.48;13.94;99770.28;10222334;28;20138;-62
2022/04/19 11:00:26;;;;;;;5.03;4.47;;;;;;;34.14;11.91;99756.38;10221894;28;20601;-63
2022/04/19 11:05:50;;;;;;;5.35;4.85;;;;;;;35.88;11.32;99757.84;10221274;28;20065;-66
2022/04/19 11:10:51;;;;;;;4.43;3.15;;;;;;;36.63;11.20;99750.28;10234234;28;20061;-64
2022/04/19 11:15:59;;;;;;;4.20;3.67;;;;;;;37.27;10.23;99746.66;10221832;28;20081;-63
2022/04/19 11:21:05;;;;;;;4.05;3.17;;;;;;;37.87;9.57;99746.56;10218771;28;20728;-67
2022/04/19 11:26:09;;;;;;;3.53;2.70;;;;;;;38.29;9.00;99742.34;10222225;28;20053;-63
2022/04/19 11:31:11;;;;;;;2.97;2.78;;;;;;;38.54;8.94;99715.78;10226452;28;20122;-63
2022/04/19 11:36:16;;;;;;;3.15;2.60;;;;;;;38.46;9.16;99704.63;10225850;28;20694;-63
2022/04/19 11:46:44;;;;;;;3.67;2.75;;;;;;;38.32;9.34;99713.91;10226193;28;20129;-63
2022/04/19 11:51:47;;;;;;;2.70;2.33;;;;;;;38.25;9.43;99701.66;10221735;28;20047;-63
2022/04/19 11:56:57;;;;;;;2.88;2.20;;;;;;;38.32;9.14;99705.59;10222853;28;20697;-65
2022/04/19 12:02:03;;;;;;;3.28;2.35;;;;;;;35.35;10.99;99706.41;10224664;28;20509;-65
2022/04/19 12:07:05;;;;;;;2.40;2.17;;;;;;;32.15;13.32;99684.94;10219200;28;20058;-65
2022/04/19 12:12:08;;;;;;;2.55;1.50;;;;;;;29.18;15.74;99683.72;10216597;28;20161;-64
2022/04/19 12:17:19;;;;;;;2.55;1.88;;;;;;;28.65;16.36;99678.84;10222649;28;20508;-64
2022/04/19 12:22:22;;;;;;;4.75;1.80;;;;;;;28.23;16.51;99684.06;10237618;28;20063;-64
2022/04/19 12:27:37;;;;;;;2.17;1.60;;;;;;;27.84;16.48;99650.16;10216640;28;20065;-63
2022/04/19 12:32:53;;;;;;;1.33;1.23;;;;;;;28.24;17.55;99677.50;10219666;28;20265;-63
2022/04/19 12:38:16;;;;;;;2.28;1.20;;;;;;;27.89;16.78;99664.97;10218345;28;20035;-63
2022/04/19 12:43:18;;;;;;;1.70;1.13;;;;;;;27.40;17.56;99663.72;10218099;28;20059;-64
2022/04/19 12:48:22;;;;;;;1.95;1.45;;;;;;;27.04;18.19;99673.19;10219179;28;20493;-66
2022/04/19 12:53:25;;;;;;;2.20;1.02;;;;;;;27.02;18.44;99676.16;10221779;28;20066;-64
2022/04/19 13:04:43;;;;;;;2.47;1.40;;;;;;;25.76;19.40;99656.72;10202948;28;20062;-62
2022/04/19 13:15:05;;;;;;;2.70;1.30;;;;;;;25.47;20.44;99649.47;10214971;28;20658;-62
2022/04/19 13:20:08;;;;;;;1.67;1.17;;;;;;;24.90;20.88;99634.44;10214715;28;20691;-63
2022/04/19 13:25:10;;;;;;;2.97;1.45;;;;;;;24.22;21.73;99641.03;10222443;28;20163;-63
2022/04/19 13:30:11;;;;;;;2.40;1.23;;;;;;;24.38;21.48;99628.66;10216315;28;20065;-63
2022/04/19 13:35:13;;;;;;;1.30;1.10;;;;;;;23.89;22.10;99636.81;10214169;28;20618;-63
2022/04/19 13:40:14;;;;;;;2.00;1.00;;;;;;;23.92;21.92;99620.88;10221874;28;20059;-62
2022/04/19 13:45:17;;;;;;;1.23;1.10;;;;;;;23.84;22.16;99623.88;10216077;28;20050;-63
2022/04/19 13:50:19;;;;;;;4.25;1.27;;;;;;;23.43;22.79;99617.16;10217064;28;20150;-63
2022/04/19 13:55:21;;;;;;;2.20;1.23;;;;;;;23.35;22.73;99614.75;10218848;28;20059;-63
2022/04/19 14:00:23;;;;;;;1.93;1.17;;;;;;;23.29;22.65;99603.72;10222492;28;20055;-63
2022/04/19 14:05:24;;;;;;;2.35;1.15;;;;;;;22.90;23.45;99613.81;10219868;28;20054;-63
2022/04/19 14:10:26;;;;;;;1.73;1.17;;;;;;;22.84;23.52;99609.25;10219922;28;20070;-63
2022/04/19 14:15:27;;;;;;;1.42;0.90;;;;;;;22.44;24.00;99598.66;10216655;28;20066;-64
2022/04/19 14:20:29;;;;;;;2.63;1.15;;;;;;;22.33;24.05;99623.75;10223233;28;20113;-65
2022/04/19 14:25:30;;;;;;;2.70;1.55;;;;;;;22.02;24.10;99614.47;10227715;28;20050;-64
2022/04/19 14:35:53;;;;;;;1.67;1.42;;;;;;;21.02;26.48;99607.31;10224515;28;21239;-67
2022/04/19 14:40:54;;;;;;;1.77;1.52;;;;;;;20.96;26.51;99598.16;10222387;28;20061;-64
2022/04/19 14:45:59;;;;;;;2.63;1.48;;;;;;;20.99;27.02;99621.28;10224101;28;20051;-64
2022/04/19 14:56:21;;;;;;;1.40;1.23;;;;;;;21.13;27.37;99612.09;10223858;28;20046;-65
2022/04/19 15:01:23;;;;;;;2.10;1.50;;;;;;;21.01;27.56;99605.66;10223837;28;20180;-64
2022/04/19 15:06:24;;;;;;;3.13;1.40;;;;;;;21.01;27.68;99597.53;10224817;28;20055;-64
2022/04/19 15:11:25;;;;;;;3.03;1.55;;;;;;;20.91;28.04;99602.53;10221598;28;20051;-64
2022/04/19 15:16:27;;;;;;;4.55;1.33;;;;;;;20.71;28.40;99610.63;10221131;28;20050;-63
2022/04/19 15:21:28;;;;;;;3.08;1.52;;;;;;;20.78;28.16;99612.28;10229392;28;20482;-64
2022/04/19 15:26:30;;;;;;;2.92;1.63;;;;;;;20.66;28.47;99611.25;10234744;28;20042;-64
2022/04/19 15:31:32;;;;;;;2.95;1.40;;;;;;;20.79;27.94;99608.56;10230848;28;20046;-63
2022/04/19 15:36:34;;;;;;;2.67;1.60;;;;;;;20.73;28.66;99603.97;10218416;28;20186;-64
2022/04/19 15:41:35;;;;;;;1.63;1.30;;;;;;;20.40;29.07;99604.72;10220036;28;20507;-64
2022/04/19 15:46:37;;;;;;;2.92;1.00;;;;;;;20.72;28.60;99599.59;10237517;28;20061;-65
2022/04/19 15:51:41;;;;;;;2.55;1.35;;;;;;;20.83;28.26;99585.44;10223546;28;20081;-63
2022/04/19 15:56:43;;;;;;;0.95;0.85;;;;;;;20.93;28.02;99598.56;10221292;28;20113;-63
2022/04/19 16:01:44;;;;;;;0.88;0.60;;;;;;;20.72;28.48;99607.72;10219353;28;20077;-63
2022/04/19 16:06:45;;;;;;;1.65;0.45;;;;;;;20.61;27.17;99610.97;10216217;28;20773;-63
2022/04/19 16:11:47;;;;;;;2.05;0.40;;;;;;;20.41;26.19;99595.53;10219606;28;20909;-63
2022/04/19 16:27:29;;;;;;;0.95;0.30;;;;;;;19.67;26.09;99618.69;10217208;28;20306;-64
2022/04/19 16:32:34;;;;;;;1.38;0.38;;;;;;;19.43;26.35;99588.41;10214876;28;20422;-64
2022/04/19 16:37:35;;;;;;;1.50;0.50;;;;;;;19.59;26.70;99618.81;10217269;28;20046;-63
2022/04/19 16:42:37;;;;;;;4.07;2.28;;;;;;;19.58;26.78;99622.56;10216783;28;20078;-63
2022/04/19 16:47:38;;;;;;;0.90;0.57;;;;;;;19.47;26.80;99628.50;10213836;28;20510;-63
2022/04/19 16:52:42;;;;;;;1.75;0.50;;;;;;;19.16;27.31;99598.19;10214913;28;20059;-64
2022/04/19 16:57:43;;;;;;;1.95;0.52;;;;;;;19.19;27.24;99638.25;10218620;28;20055;-64
2022/04/19 17:02:44;;;;;;;0.85;0.40;;;;;;;18.87;27.59;99627.00;10220593;28;20055;-63
2022/04/19 17:07:46;;;;;;;1.75;0.82;;;;;;;18.86;27.80;99635.28;10220382;28;20089;-65
2022/04/19 17:12:47;;;;;;;1.42;0.30;;;;;;;18.69;27.08;99638.19;10218424;28;20058;-64
2022/04/19 17:17:49;;;;;;;0.70;0.50;;;;;;;18.70;26.37;99653.31;10216510;28;20061;-63
2022/04/19 17:22:50;;;;;;;1.52;0.60;;;;;;;18.51;25.91;99646.69;10219281;28;20571;-63
2022/04/19 17:27:51;;;;;;;0.88;0.20;;;;;;;18.40;25.25;99665.22;10218369;28;20054;-63
2022/04/19 17:32:53;;;;;;;1.48;0.20;;;;;;;18.19;25.32;99650.66;10227981;28;20510;-61
2022/04/19 17:37:54;;;;;;;1.17;0.20;;;;;;;18.02;25.50;99667.00;10212182;28;20065;-67
2022/04/19 17:42:57;;;;;;;1.13;0.38;;;;;;;18.07;26.22;99673.72;10216652;28;20047;-65
2022/04/19 17:47:58;;;;;;;2.70;0.70;;;;;;;17.96;25.90;99678.53;10214554;28;20051;-62
2022/04/19 17:58:40;;;;;;;2.15;0.55;;;;;;;17.67;26.05;99684.72;10223309;28;20054;-65
2022/04/19 18:03:41;;;;;;;1.42;0.30;;;;;;;17.53;26.44;99698.97;10221178;28;20059;-64
2022/04/19 18:08:42;;;;;;;1.42;0.20;;;;;;;17.30;26.72;99697.16;10227620;28;20429;-67
2022/04/19 18:13:44;;;;;;;2.45;0.52;;;;;;;17.27;27.41;99706.41;10224493;28;20054;-65
2022/04/19 18:18:46;;;;;;;0.70;0.30;;;;;;;17.23;26.63;99709.66;10224127;28;20067;-65
2022/04/19 18:29:08;;;;;;;1.98;0.70;;;;;;;16.93;27.21;99731.03;10219972;28;20739;-64
2022/04/19 18:34:09;;;;;;;1.60;1.00;;;;;;;16.82;27.32;99743.00;10218276;28;20055;-64
2022/04/19 18:39:11;;;;;;;1.23;0.70;;;;;;;16.74;27.36;99751.09;10223556;28;20055;-64
2022/04/19 18:44:12;;;;;;;2.13;1.02;;;;;;;16.52;27.05;99768.84;10225466;28;20193;-64
2022/04/19 18:49:13;;;;;;;1.92;0.80;;;;;;;16.43;26.91;99762.66;10220408;28;20050;-65
2022/04/19 18:54:16;;;;;;;1.75;0.70;;;;;;;16.27;27.25;99793.06;10221103;28;20055;-65
2022/04/19 18:59:18;;;;;;;3.53;0.83;;;;;;;15.98;27.19;99794.47;10222386;28;20054;-64
2022/04/19 19:04:19;;;;;;;1.60;0.77;;;;;;;15.99;27.85;99811.41;10247967;28;20061;-64
2022/04/19 19:09:21;;;;;;;0.90;0.55;;;;;;;16.01;27.83;99820.16;10224928;28;20054;-65
2022/04/19 19:14:23;;;;;;;2.47;0.98;;;;;;;15.66;28.08;99822.16;10230997;28;20050;-64
2022/04/19 19:19:24;;;;;;;1.75;1.33;;;;;;;15.55;28.02;99829.50;10228193;28;20066;-63
2022/04/19 19:24:25;;;;;;;1.63;1.08;;;;;;;15.35;29.20;99855.78;10225394;28;20134;-65
2022/04/19 19:29:27;;;;;;;1.35;1.25;;;;;;;15.38;28.70;99851.94;10221369;28;20059;-65
2022/04/19 19:34:32;;;;;;;1.20;0.63;;;;;;;15.27;29.04;99887.13;10221529;28;20129;-65
2022/04/19 19:39:33;;;;;;;1.65;1.13;;;;;;;15.09;29.61;99896.09;10223881;28;20552;-65
2022/04/19 19:44:34;;;;;;;1.23;0.70;;;;;;;15.02;29.58;99889.69;10216272;28;20070;-66
2022/04/19 19:49:36;;;;;;;1.65;0.90;;;;;;;15.12;30.33;99911.03;10219175;28;20059;-65
2022/04/19 19:54:42;;;;;;;1.77;1.50;;;;;;;15.00;30.42;99910.47;10219068;28;20487;-66
2022/04/19 19:59:43;;;;;;;2.63;1.75;;;;;;;15.01;30.10;99928.22;10224982;28;20589;-66
2022/04/19 20:04:45;;;;;;;2.95;1.40;;;;;;;14.98;30.40;99936.56;10222468;28;20146;-65
2022/04/19 20:09:47;;;;;;;3.00;1.58;;;;;;;14.93;30.97;99934.38;10238739;28;20047;-64
2022/04/19 20:14:48;;;;;;;2.83;1.05;;;;;;;14.77;30.31;99923.56;10256952;28;20089;-65
2022/04/19 20:19:49;;;;;;;1.90;1.40;;;;;;;14.72;30.98;99926.72;10242117;28;20070;-68
2022/04/19 20:24:51;;;;;;;2.20;1.45;;;;;;;14.73;30.60;99957.88;10249441;28;20078;-65
2022/04/19 20:29:52;;;;;;;1.17;1.00;;;;;;;14.73;31.11;99965.94;10242935;28;20141;-66
2022/04/19 20:34:54;;;;;;;2.20;0.73;;;;;;;14.65;30.46;99965.84;10243846;28;20789;-66
2022/04/19 20:39:55;;;;;;;2.22;1.17;;;;;;;14.49;31.10;99983.47;10251754;28;20166;-66
2022/04/19 20:44:57;;;;;;;3.72;0.80;;;;;;;14.37;31.40;99970.50;10235007;28;20043;-64
2022/04/19 20:50:07;;;;;;;1.38;0.70;;;;;;;14.38;31.18;99975.69;10248721;28;20095;-66
2022/04/19 20:55:17;;;;;;;1.75;1.00;;;;;;;14.24;31.63;99993.13;10239280;28;20047;-67
2022/04/19 21:00:25;;;;;;;2.30;1.15;;;;;;;14.10;32.11;99978.44;10237174;28;20394;-65
2022/04/19 21:05:28;;;;;;;4.63;1.13;;;;;;;14.09;31.67;99973.25;10241507;28;20691;-64
2022/04/19 21:10:30;;;;;;;1.65;1.25;;;;;;;14.08;32.34;99990.28;10252507;28;20055;-64
2022/04/19 21:15:31;;;;;;;2.40;1.10;;;;;;;14.02;31.54;99988.22;10240357;28;20577;-65
2022/04/19 21:20:34;;;;;;;1.92;1.00;;;;;;;14.01;32.51;100000.78;10235360;28;20513;-65
2022/04/19 21:25:35;;;;;;;1.88;1.20;;;;;;;13.81;32.77;99962.63;10233090;28;20111;-65
2022/04/19 21:30:56;;;;;;;4.75;1.48;;;;;;;13.96;33.18;99995.03;10237590;28;20055;-66
2022/04/19 21:35:58;;;;;;;1.40;1.10;;;;;;;13.93;32.79;100009.56;10238000;28;20051;-66
2022/04/19 21:40:59;;;;;;;2.72;1.00;;;;;;;13.89;33.00;100008.19;10237232;28;20134;-66
2022/04/19 21:46:01;;;;;;;2.95;1.27;;;;;;;13.76;33.60;100008.53;10238607;28;20074;-64
2022/04/19 21:51:03;;;;;;;4.05;1.92;;;;;;;13.75;33.95;100017.56;10242367;28;20574;-64
2022/04/19 21:56:04;;;;;;;3.05;1.70;;;;;;;13.65;33.58;100016.78;10244242;28;20074;-65
2022/04/19 22:01:06;;;;;;;2.00;1.38;;;;;;;13.62;33.53;100027.78;10240773;28;20568;-65
2022/04/19 22:06:07;;;;;;;1.92;1.17;;;;;;;13.54;33.77;100025.00;10240176;28;20101;-65
2022/04/19 22:11:10;;;;;;;3.25;2.13;;;;;;;13.42;33.83;100011.84;10238768;28;20187;-67
2022/04/19 22:16:11;;;;;;;2.33;1.52;;;;;;;13.40;34.24;100019.13;10239254;28;20138;-65
2022/04/19 22:21:13;;;;;;;3.03;2.05;;;;;;;13.25;34.04;100009.91;10236506;28;20055;-65
2022/04/19 22:26:14;;;;;;;2.75;1.83;;;;;;;13.18;35.00;100009.66;10237057;28;20114;-66
2022/04/19 22:31:15;;;;;;;2.75;1.80;;;;;;;13.18;34.65;100019.47;10236968;28;20382;-64
2022/04/19 22:36:18;;;;;;;1.83;1.23;;;;;;;13.08;34.98;100030.22;10232891;28;20104;-65
2022/04/19 22:41:20;;;;;;;3.42;1.80;;;;;;;13.04;34.37;100026.97;10249172;28;20055;-64
2022/04/19 22:46:21;;;;;;;2.28;1.60;;;;;;;12.99;34.80;100037.25;10242900;28;20146;-65
2022/04/19 22:51:23;;;;;;;3.00;1.70;;;;;;;12.87;35.26;100028.56;10255115;28;20051;-65
2022/04/19 22:56:24;;;;;;;2.13;1.60;;;;;;;12.80;34.67;100022.13;10246791;28;20471;-64
2022/04/19 23:01:26;;;;;;;3.28;1.80;;;;;;;12.77;35.08;100022.41;10244054;28;20054;-65
2022/04/19 23:06:27;;;;;;;2.90;1.77;;;;;;;12.71;35.31;100018.47;10250160;28;20055;-66
2022/04/19 23:11:29;;;;;;;2.95;1.85;;;;;;;12.72;34.76;100038.03;10242979;28;20134;-66
2022/04/19 23:16:30;;;;;;;2.50;2.25;;;;;;;12.65;35.51;100035.06;10244916;28;20114;-65
2022/04/19 23:21:32;;;;;;;3.58;2.67;;;;;;;12.57;35.15;100037.63;10244135;28;20114;-65
2022/04/19 23:31:53;;;;;;;3.42;2.80;;;;;;;12.40;35.59;100027.63;10245310;28;20593;-66
2022/04/19 23:36:55;;;;;;;3.55;2.90;;;;;;;12.26;35.15;100023.56;10246934;28;20081;-65
2022/04/19 23:41:56;;;;;;;4.63;3.00;;;;;;;12.25;36.11;100025.41;10242308;28;20741;-65
2022/04/19 23:47:00;;;;;;;4.13;2.80;;;;;;;12.30;35.81;100033.81;10251958;28;20047;-65
2022/04/19 23:52:03;;;;;;;4.97;3.10;;;;;;;12.26;36.95;100024.41;10247692;28;20133;-65
2022/04/19 23:57:04;;;;;;;3.50;2.92;;;;;;;12.33;36.18;100030.88;10248199;28;20619;-65
